createdAt,value
2018-03-21T00:00:21.246Z,1.42
2018-03-21T00:02:48.691Z,1.40
2018-03-21T00:05:16.074Z,1.46
2018-03-21T00:07:43.481Z,1.44
2018-03-21T00:10:10.879Z,1.47
2018-03-21T00:12:38.347Z,1.49
2018-03-21T00:15:05.705Z,1.52
2018-03-21T00:17:33.105Z,1.52
2018-03-21T00:20:00.510Z,1.47
2018-03-21T00:22:27.899Z,1.45
2018-03-21T00:24:55.293Z,1.42
2018-03-21T00:27:22.713Z,1.34
2018-03-21T00:29:50.096Z,1.28
2018-03-21T00:32:17.490Z,1.17
2018-03-21T00:34:44.887Z,1.14
2018-03-21T00:37:12.300Z,1.18
2018-03-21T00:39:39.684Z,1.22
2018-03-21T00:42:07.077Z,1.23
2018-03-21T00:44:34.468Z,1.27
2018-03-21T00:47:01.879Z,1.27
2018-03-21T00:49:29.271Z,1.13
2018-03-21T00:51:56.671Z,1.19
2018-03-21T00:54:24.051Z,1.13
2018-03-21T00:56:51.447Z,1.08
2018-03-21T00:59:18.850Z,1.03
2018-03-21T01:01:46.238Z,0.99
2018-03-21T01:04:13.630Z,0.95
2018-03-21T01:06:41.027Z,0.94
2018-03-21T01:09:08.418Z,0.90
2018-03-21T01:11:35.826Z,0.88
2018-03-21T01:14:03.222Z,0.88
2018-03-21T01:16:30.610Z,0.84
2018-03-21T01:18:58.002Z,0.85
2018-03-21T01:21:25.409Z,0.83
2018-03-21T01:23:52.814Z,0.80
2018-03-21T01:26:20.197Z,0.75
2018-03-21T01:28:47.599Z,0.72
2018-03-21T01:31:14.990Z,0.69
2018-03-21T01:33:42.400Z,0.71
2018-03-21T01:36:09.795Z,0.75
2018-03-21T01:38:37.193Z,0.75
2018-03-21T01:41:04.586Z,0.66
2018-03-21T01:43:32.356Z,0.62
2018-03-21T01:45:59.747Z,0.60
2018-03-21T01:48:27.142Z,0.63
2018-03-21T01:50:54.534Z,0.60
2018-03-21T01:53:21.941Z,0.63
2018-03-21T01:55:49.323Z,0.67
2018-03-21T01:58:16.713Z,0.70
2018-03-21T02:00:44.113Z,0.66
2018-03-21T02:03:11.511Z,0.67
2018-03-21T02:05:38.922Z,0.66
2018-03-21T02:08:06.314Z,0.69
2018-03-21T02:10:33.706Z,0.70
2018-03-21T02:13:01.111Z,0.70
2018-03-21T02:15:28.498Z,0.65
2018-03-21T02:17:55.894Z,0.57
2018-03-21T02:20:23.307Z,0.51
2018-03-21T02:22:50.707Z,0.46
2018-03-21T02:25:18.106Z,0.36
2018-03-21T02:27:45.502Z,0.29
2018-03-21T02:30:12.914Z,0.17
2018-03-21T02:32:40.312Z,0.13
2018-03-21T02:35:07.712Z,0.11
2018-03-21T02:37:35.102Z,0.08
2018-03-21T02:40:02.501Z,0.06
2018-03-21T02:42:29.898Z,0.05
2018-03-21T02:44:57.298Z,0.04
2018-03-21T02:47:24.700Z,-0.02
2018-03-21T02:49:52.101Z,-0.09
2018-03-21T02:52:19.560Z,-0.05
2018-03-21T02:54:46.962Z,-0.05
2018-03-21T02:57:14.358Z,-0.08
2018-03-21T02:59:41.759Z,-0.09
2018-03-21T03:02:09.173Z,-0.14
2018-03-21T03:04:36.564Z,-0.24
2018-03-21T03:07:03.973Z,-0.28
2018-03-21T03:09:31.390Z,-0.28
2018-03-21T03:11:58.783Z,-0.23
2018-03-21T03:14:26.170Z,-0.20
2018-03-21T03:16:53.565Z,-0.25
2018-03-21T03:19:20.967Z,-0.22
2018-03-21T03:21:48.361Z,-0.28
2018-03-21T03:24:15.769Z,-0.28
2018-03-21T03:26:43.164Z,-0.28
2018-03-21T03:29:10.567Z,-0.22
2018-03-21T03:31:37.981Z,-0.24
2018-03-21T03:34:05.377Z,-0.34
2018-03-21T03:36:32.766Z,-0.36
2018-03-21T03:39:00.163Z,-0.34
2018-03-21T03:41:27.575Z,-0.34
2018-03-21T03:43:54.966Z,-0.35
2018-03-21T03:46:22.373Z,-0.35
2018-03-21T03:48:50.081Z,-0.34
2018-03-21T03:51:17.489Z,-0.30
2018-03-21T03:53:44.878Z,-0.28
2018-03-21T03:56:12.308Z,-0.30
2018-03-21T03:58:39.701Z,-0.30
2018-03-21T04:01:07.099Z,-0.34
2018-03-21T04:03:34.514Z,-0.37
2018-03-21T04:06:01.911Z,-0.40
2018-03-21T04:08:29.314Z,-0.47
2018-03-21T04:10:56.727Z,-0.50
2018-03-21T04:13:24.130Z,-0.47
2018-03-21T04:15:51.529Z,-0.50
2018-03-21T04:18:19.211Z,-0.56
2018-03-21T04:20:46.605Z,-0.60
2018-03-21T04:23:14.020Z,-0.60
2018-03-21T04:25:41.403Z,-0.55
2018-03-21T04:28:08.801Z,-0.52
2018-03-21T04:30:36.205Z,-0.58
2018-03-21T04:33:03.645Z,-0.59
2018-03-21T04:35:31.042Z,-0.60
2018-03-21T04:37:58.453Z,-0.58
2018-03-21T04:40:25.858Z,-0.55
2018-03-21T04:42:53.259Z,-0.64
2018-03-21T04:45:20.659Z,-0.77
2018-03-21T04:47:48.057Z,-0.84
2018-03-21T04:50:15.461Z,-0.83
2018-03-21T04:52:42.862Z,-0.79
2018-03-21T04:55:10.261Z,-0.82
2018-03-21T04:57:37.674Z,-0.81
2018-03-21T05:00:05.066Z,-0.82
2018-03-21T05:02:32.465Z,-0.74
2018-03-21T05:04:59.862Z,-0.78
2018-03-21T05:07:27.257Z,-0.74
2018-03-21T05:09:54.657Z,-0.68
2018-03-21T05:12:22.048Z,-0.70
2018-03-21T05:14:49.457Z,-0.77
2018-03-21T05:17:16.853Z,-0.86
2018-03-21T05:19:44.256Z,-0.81
2018-03-21T05:22:11.654Z,-0.83
2018-03-21T05:24:39.139Z,-0.80
2018-03-21T05:27:06.523Z,-0.79
2018-03-21T05:29:33.948Z,-0.76
2018-03-21T05:32:01.385Z,-0.71
2018-03-21T05:34:28.773Z,-0.70
2018-03-21T05:36:56.183Z,-0.69
2018-03-21T05:39:23.583Z,-0.65
2018-03-21T05:41:51.049Z,-0.67
2018-03-21T05:44:18.473Z,-0.71
2018-03-21T05:46:45.920Z,-0.73
2018-03-21T05:49:13.326Z,-0.73
2018-03-21T05:51:41.545Z,-0.77
2018-03-21T05:54:08.966Z,-0.78
2018-03-21T05:56:36.363Z,-0.78
2018-03-21T05:59:03.763Z,-0.80
2018-03-21T06:01:31.154Z,-0.79
2018-03-21T06:03:58.554Z,-0.79
2018-03-21T06:06:25.950Z,-0.73
2018-03-21T06:08:53.725Z,-0.72
2018-03-21T06:11:21.118Z,-0.69
2018-03-21T06:13:48.535Z,-0.63
2018-03-21T06:16:15.937Z,-0.64
2018-03-21T06:18:43.334Z,-0.63
2018-03-21T06:21:10.737Z,-0.60
2018-03-21T06:23:38.141Z,-0.62
2018-03-21T06:26:05.527Z,-0.61
2018-03-21T06:28:32.924Z,-0.60
2018-03-21T06:31:00.341Z,-0.56
2018-03-21T06:33:27.750Z,-0.54
2018-03-21T06:35:55.146Z,-0.51
2018-03-21T06:38:22.548Z,-0.44
2018-03-21T06:40:49.955Z,-0.44
2018-03-21T06:43:17.361Z,-0.40
2018-03-21T06:45:44.766Z,-0.38
2018-03-21T06:48:12.157Z,-0.33
2018-03-21T06:50:39.565Z,-0.31
2018-03-21T06:53:06.961Z,-0.31
2018-03-21T06:55:34.367Z,-0.30
2018-03-21T06:58:01.760Z,-0.22
2018-03-21T07:00:29.162Z,-0.12
2018-03-21T07:02:56.558Z,-0.04
2018-03-21T07:05:23.984Z,0.08
2018-03-21T07:07:51.366Z,0.10
2018-03-21T07:10:18.770Z,0.20
2018-03-21T07:12:46.170Z,0.31
2018-03-21T07:15:25.334Z,0.23
2018-03-21T07:17:52.733Z,0.22
2018-03-21T07:20:20.132Z,0.37
2018-03-21T07:22:47.529Z,0.40
2018-03-21T07:25:14.961Z,0.57
2018-03-21T07:27:42.362Z,0.58
2018-03-21T07:30:09.763Z,0.63
2018-03-21T07:32:37.162Z,0.70
2018-03-21T07:35:04.562Z,0.75
2018-03-21T07:37:31.957Z,0.84
2018-03-21T07:39:59.358Z,0.91
2018-03-21T07:42:26.751Z,0.99
2018-03-21T07:44:54.162Z,1.12
2018-03-21T07:47:21.552Z,1.20
2018-03-21T07:49:48.971Z,1.21
2018-03-21T07:52:16.358Z,1.28
2018-03-21T07:54:43.810Z,1.35
2018-03-21T07:57:11.207Z,1.39
2018-03-21T07:59:38.611Z,1.38
2018-03-21T08:02:06.007Z,1.42
2018-03-21T08:04:33.412Z,1.51
2018-03-21T08:07:00.797Z,1.43
2018-03-21T08:09:28.199Z,1.31
2018-03-21T08:11:55.595Z,1.24
2018-03-21T08:14:23.022Z,1.30
2018-03-21T08:16:50.437Z,1.32
2018-03-21T08:19:17.830Z,1.54
2018-03-21T08:21:45.234Z,1.47
2018-03-21T08:24:12.633Z,1.53
2018-03-21T08:26:40.434Z,1.56
2018-03-21T08:29:07.840Z,1.44
2018-03-21T08:31:35.253Z,1.43
2018-03-21T08:34:02.676Z,1.48
2018-03-21T08:36:31.084Z,1.50
2018-03-21T08:38:58.489Z,1.42
2018-03-21T08:41:25.984Z,1.35
2018-03-21T08:43:53.402Z,1.21
2018-03-21T08:46:20.831Z,1.20
2018-03-21T08:48:48.278Z,1.09
2018-03-21T08:51:15.691Z,1.23
2018-03-21T08:53:43.113Z,1.26
2018-03-21T08:56:10.509Z,1.41
2018-03-21T08:58:37.906Z,1.26
2018-03-21T09:01:05.302Z,1.18
2018-03-21T09:03:32.710Z,1.13
2018-03-21T09:06:00.116Z,1.33
2018-03-21T09:08:27.518Z,1.10
2018-03-21T09:10:54.921Z,1.16
2018-03-21T09:13:22.344Z,1.23
2018-03-21T09:15:49.741Z,1.20
2018-03-21T09:18:17.161Z,1.36
2018-03-21T09:20:44.533Z,1.42
2018-03-21T09:23:12.566Z,1.54
2018-03-21T09:25:40.001Z,1.54
2018-03-21T09:28:07.666Z,1.45
2018-03-21T09:30:35.091Z,1.40
2018-03-21T09:33:02.531Z,1.53
2018-03-21T09:35:29.926Z,1.60
2018-03-21T09:37:57.375Z,1.57
2018-03-21T09:40:24.804Z,1.67
2018-03-21T09:42:52.182Z,1.79
2018-03-21T09:45:19.626Z,1.76
2018-03-21T09:47:47.036Z,1.84
2018-03-21T09:50:14.458Z,1.79
2018-03-21T09:52:41.855Z,1.97
2018-03-21T09:55:09.276Z,2.19
2018-03-21T09:57:36.731Z,2.28
2018-03-21T10:00:04.082Z,2.42
2018-03-21T10:02:31.489Z,2.39
2018-03-21T10:04:58.931Z,2.28
2018-03-21T10:07:26.337Z,2.35
2018-03-21T10:09:53.770Z,2.40
2018-03-21T10:12:21.147Z,2.47
2018-03-21T10:14:48.554Z,2.61
2018-03-21T10:17:15.955Z,2.74
2018-03-21T10:19:43.345Z,2.72
2018-03-21T10:22:10.767Z,2.73
2018-03-21T10:24:38.174Z,2.73
2018-03-21T10:27:05.586Z,2.77
2018-03-21T10:29:32.995Z,2.69
2018-03-21T10:32:00.402Z,2.78
2018-03-21T10:34:27.822Z,2.86
2018-03-21T10:36:55.250Z,2.89
2018-03-21T10:39:22.649Z,3.06
2018-03-21T10:41:50.056Z,3.17
2018-03-21T10:44:17.460Z,3.23
2018-03-21T10:46:44.882Z,2.90
2018-03-21T10:49:12.290Z,3.06
2018-03-21T10:51:39.721Z,3.11
2018-03-21T10:54:07.127Z,2.99
2018-03-21T10:56:34.566Z,3.03
2018-03-21T10:59:01.981Z,3.18
2018-03-21T11:01:34.954Z,3.12
2018-03-21T11:04:02.356Z,3.03
2018-03-21T11:06:29.759Z,3.01
2018-03-21T11:08:57.160Z,3.13
2018-03-21T11:11:24.572Z,3.25
2018-03-21T11:13:52.006Z,3.41
2018-03-21T11:16:19.397Z,3.46
2018-03-21T11:18:46.895Z,3.46
2018-03-21T11:21:14.321Z,3.39
2018-03-21T11:23:41.745Z,3.50
2018-03-21T11:26:09.180Z,3.59
2018-03-21T11:28:36.595Z,3.70
2018-03-21T11:31:07.166Z,3.63
2018-03-21T11:33:34.617Z,3.58
2018-03-21T11:36:02.030Z,3.65
2018-03-21T11:38:29.426Z,3.76
2018-03-21T11:40:56.818Z,3.83
2018-03-21T11:43:24.222Z,3.79
2018-03-21T11:45:51.639Z,3.87
2018-03-21T11:48:19.045Z,3.92
2018-03-21T11:50:46.446Z,4.03
2018-03-21T11:53:13.834Z,4.10
2018-03-21T11:55:41.246Z,4.04
2018-03-21T11:58:08.654Z,3.91
2018-03-21T12:00:36.062Z,4.06
2018-03-21T12:03:03.467Z,3.95
2018-03-21T12:05:30.878Z,4.15
2018-03-21T12:07:58.274Z,4.33
2018-03-21T12:10:25.686Z,4.36
2018-03-21T12:12:53.086Z,4.55
2018-03-21T12:15:20.490Z,4.44
2018-03-21T12:17:47.874Z,4.53
2018-03-21T12:20:15.262Z,4.59
2018-03-21T12:22:42.666Z,4.61
2018-03-21T12:25:10.060Z,4.87
2018-03-21T12:27:37.462Z,4.91
2018-03-21T12:30:04.853Z,5.05
2018-03-21T12:32:32.246Z,4.89
2018-03-21T12:34:59.644Z,5.07
2018-03-21T12:37:27.037Z,5.21
2018-03-21T12:39:54.437Z,5.28
2018-03-21T12:42:21.832Z,5.38
2018-03-21T12:44:49.289Z,5.38
2018-03-21T12:47:16.630Z,5.51
2018-03-21T12:49:44.026Z,5.68
2018-03-21T12:52:11.443Z,5.53
2018-03-21T12:54:38.834Z,5.56
2018-03-21T12:57:06.233Z,5.77
2018-03-21T12:59:33.627Z,5.81
2018-03-21T13:02:01.022Z,5.93
2018-03-21T13:04:28.421Z,5.85
2018-03-21T13:06:55.802Z,5.61
2018-03-21T13:09:23.207Z,5.77
2018-03-21T13:11:50.594Z,5.72
2018-03-21T13:14:17.995Z,5.71
2018-03-21T13:16:45.384Z,5.39
2018-03-21T13:19:12.774Z,5.17
2018-03-21T13:21:40.175Z,5.16
2018-03-21T13:24:07.577Z,4.97
2018-03-21T13:26:34.974Z,4.98
2018-03-21T13:29:02.376Z,5.33
2018-03-21T13:31:29.757Z,5.57
2018-03-21T13:33:57.154Z,5.73
2018-03-21T13:36:24.562Z,5.87
2018-03-21T13:38:51.963Z,5.81
2018-03-21T13:41:19.350Z,5.74
2018-03-21T13:43:46.770Z,5.91
2018-03-21T13:46:14.180Z,6.18
2018-03-21T13:48:41.572Z,6.38
2018-03-21T13:51:08.973Z,6.42
2018-03-21T13:53:36.365Z,6.08
2018-03-21T13:56:03.774Z,6.03
2018-03-21T13:58:31.157Z,5.99
2018-03-21T14:00:58.558Z,5.85
2018-03-21T14:03:25.949Z,5.80
2018-03-21T14:05:53.345Z,5.99
2018-03-21T14:08:20.741Z,5.88
2018-03-21T14:10:48.138Z,5.86
2018-03-21T14:13:15.530Z,5.90
2018-03-21T14:15:42.925Z,5.77
2018-03-21T14:18:10.322Z,5.91
2018-03-21T14:20:37.717Z,6.01
2018-03-21T14:23:05.110Z,5.68
2018-03-21T14:25:32.514Z,6.01
2018-03-21T14:27:59.917Z,6.19
2018-03-21T14:30:27.314Z,6.47
2018-03-21T14:32:54.731Z,6.40
2018-03-21T14:35:22.118Z,6.43
2018-03-21T14:37:49.509Z,6.50
2018-03-21T14:40:16.920Z,6.72
2018-03-21T14:42:44.312Z,6.86
2018-03-21T14:45:11.698Z,6.96
2018-03-21T14:47:39.093Z,6.88
2018-03-21T14:50:06.868Z,6.81
2018-03-21T14:52:34.271Z,6.55
2018-03-21T14:55:01.658Z,6.56
2018-03-21T14:57:29.066Z,6.41
2018-03-21T14:59:56.457Z,6.16
2018-03-21T15:02:23.858Z,6.25
2018-03-21T15:04:51.255Z,6.34
2018-03-21T15:07:18.662Z,6.48
2018-03-21T15:09:46.057Z,6.53
2018-03-21T15:12:13.453Z,6.49
2018-03-21T15:14:40.842Z,6.17
2018-03-21T15:17:08.225Z,6.24
2018-03-21T15:19:35.621Z,6.19
2018-03-21T15:22:03.011Z,6.09
2018-03-21T15:24:30.409Z,6.31
2018-03-21T15:26:57.804Z,6.59
2018-03-21T15:29:25.201Z,6.76
2018-03-21T15:31:52.591Z,6.90
2018-03-21T15:34:19.988Z,6.81
2018-03-21T15:36:47.386Z,6.87
2018-03-21T15:39:14.793Z,6.93
2018-03-21T15:41:42.173Z,6.89
2018-03-21T15:44:09.754Z,6.84
2018-03-21T15:46:37.142Z,6.92
2018-03-21T15:49:04.561Z,6.81
2018-03-21T15:51:31.941Z,6.91
2018-03-21T15:53:59.335Z,7.00
2018-03-21T15:56:26.725Z,7.04
2018-03-21T15:58:54.125Z,7.02
2018-03-21T16:01:21.536Z,6.98
2018-03-21T16:03:48.933Z,6.95
2018-03-21T16:06:16.340Z,6.93
2018-03-21T16:08:43.729Z,6.86
2018-03-21T16:11:11.121Z,6.89
2018-03-21T16:13:38.530Z,7.01
2018-03-21T16:16:05.922Z,6.99
2018-03-21T16:18:33.321Z,6.88
2018-03-21T16:21:00.726Z,6.96
2018-03-21T16:23:28.134Z,6.84
2018-03-21T16:25:55.526Z,6.75
2018-03-21T16:28:22.978Z,6.77
2018-03-21T16:30:50.326Z,6.62
2018-03-21T16:33:17.713Z,6.59
2018-03-21T16:35:45.104Z,6.68
2018-03-21T16:38:12.507Z,6.77
2018-03-21T16:40:39.897Z,6.81
2018-03-21T16:43:07.295Z,6.90
2018-03-21T16:45:34.682Z,6.80
2018-03-21T16:48:02.076Z,6.74
2018-03-21T16:50:29.699Z,6.68
2018-03-21T16:52:57.130Z,6.59
2018-03-21T16:55:24.572Z,6.63
2018-03-21T16:57:51.967Z,6.59
2018-03-21T17:00:19.394Z,6.51
2018-03-21T17:02:47.222Z,6.41
2018-03-21T17:05:14.642Z,6.34
2018-03-21T17:07:42.074Z,6.24
2018-03-21T17:10:09.525Z,6.12
2018-03-21T17:12:36.965Z,6.02
2018-03-21T17:15:04.355Z,5.98
2018-03-21T17:17:32.370Z,5.90
2018-03-21T17:19:59.819Z,5.81
2018-03-21T17:22:27.217Z,5.74
2018-03-21T17:24:54.609Z,5.69
2018-03-21T17:27:21.998Z,5.56
2018-03-21T17:29:49.434Z,5.51
2018-03-21T17:32:16.810Z,5.43
2018-03-21T17:34:44.209Z,5.32
2018-03-21T17:37:11.608Z,5.22
2018-03-21T17:39:39.034Z,5.15
2018-03-21T17:42:06.402Z,5.10
2018-03-21T17:44:33.803Z,5.01
2018-03-21T17:47:01.190Z,4.89
2018-03-21T17:49:28.590Z,4.85
2018-03-21T17:51:55.974Z,4.75
2018-03-21T17:54:23.378Z,4.71
2018-03-21T17:56:50.766Z,4.66
2018-03-21T17:59:18.150Z,4.60
2018-03-21T18:01:45.569Z,4.56
2018-03-21T18:04:12.967Z,4.52
2018-03-21T18:06:40.361Z,4.47
2018-03-21T18:09:07.752Z,4.44
2018-03-21T18:11:35.166Z,4.43
2018-03-21T18:14:02.559Z,4.34
2018-03-21T18:16:29.958Z,4.29
2018-03-21T18:18:57.350Z,4.22
2018-03-21T18:21:24.741Z,4.12
2018-03-21T18:23:52.131Z,4.07
2018-03-21T18:26:19.534Z,4.03
2018-03-21T18:28:46.917Z,3.96
2018-03-21T18:31:14.346Z,3.88
2018-03-21T18:33:41.734Z,3.85
2018-03-21T18:36:09.138Z,3.85
2018-03-21T18:38:36.539Z,3.76
2018-03-21T18:41:03.956Z,3.80
2018-03-21T18:43:31.354Z,3.84
2018-03-21T18:45:58.750Z,3.89
2018-03-21T18:48:26.163Z,3.93
2018-03-21T18:50:53.562Z,3.93
2018-03-21T18:53:20.965Z,3.95
2018-03-21T18:55:48.354Z,3.96
2018-03-21T18:58:15.762Z,3.95
2018-03-21T19:00:43.162Z,3.86
2018-03-21T19:03:10.602Z,3.86
2018-03-21T19:05:37.998Z,3.84
2018-03-21T19:08:05.401Z,3.86
2018-03-21T19:10:32.802Z,3.86
2018-03-21T19:13:00.206Z,3.82
2018-03-21T19:15:27.598Z,3.87
2018-03-21T19:17:55.005Z,3.94
2018-03-21T19:20:22.402Z,3.99
2018-03-21T19:22:49.822Z,4.07
2018-03-21T19:25:17.283Z,3.99
2018-03-21T19:27:44.686Z,4.02
2018-03-21T19:30:12.095Z,3.97
2018-03-21T19:32:39.494Z,4.05
2018-03-21T19:35:06.897Z,4.11
2018-03-21T19:37:34.312Z,4.20
2018-03-21T19:40:01.714Z,4.18
2018-03-21T19:42:29.150Z,4.25
2018-03-21T19:44:56.554Z,4.18
2018-03-21T19:47:23.962Z,4.12
2018-03-21T19:49:51.370Z,4.18
2018-03-21T19:52:18.773Z,4.21
2018-03-21T19:54:46.178Z,4.22
2018-03-21T19:57:13.581Z,4.16
2018-03-21T19:59:40.981Z,4.22
2018-03-21T20:02:08.384Z,4.26
2018-03-21T20:04:35.781Z,4.22
2018-03-21T20:07:03.194Z,4.08
2018-03-21T20:09:30.598Z,4.15
2018-03-21T20:11:58.006Z,4.08
2018-03-21T20:14:25.423Z,3.97
2018-03-21T20:16:52.830Z,3.98
2018-03-21T20:19:20.241Z,3.98
2018-03-21T20:21:47.683Z,3.94
2018-03-21T20:24:15.097Z,3.92
2018-03-21T20:26:42.503Z,3.97
2018-03-21T20:29:10.031Z,3.91
2018-03-21T20:31:37.433Z,3.88
2018-03-21T20:34:04.825Z,3.81
2018-03-21T20:36:32.532Z,3.79
2018-03-21T20:39:01.020Z,3.82
2018-03-21T20:41:28.986Z,3.83
2018-03-21T20:43:56.482Z,3.78
2018-03-21T20:46:27.122Z,3.72
2018-03-21T20:48:54.523Z,3.68
2018-03-21T20:51:21.919Z,3.66
2018-03-21T20:53:49.324Z,3.61
2018-03-21T20:56:16.718Z,3.56
2018-03-21T20:58:44.123Z,3.49
2018-03-21T21:01:11.523Z,3.47
2018-03-21T21:03:38.926Z,3.41
2018-03-21T21:06:06.326Z,3.40
2018-03-21T21:08:33.729Z,3.39
2018-03-21T21:11:01.125Z,3.39
2018-03-21T21:13:28.522Z,3.39
2018-03-21T21:15:55.922Z,3.35
2018-03-21T21:18:23.347Z,3.33
2018-03-21T21:20:50.747Z,3.32
2018-03-21T21:23:18.142Z,3.31
2018-03-21T21:25:45.550Z,3.25
2018-03-21T21:28:12.937Z,3.23
2018-03-21T21:30:40.337Z,3.20
2018-03-21T21:33:07.738Z,3.21
2018-03-21T21:35:35.151Z,3.18
2018-03-21T21:38:02.551Z,3.13
2018-03-21T21:40:29.959Z,3.15
2018-03-21T21:42:57.353Z,3.08
2018-03-21T21:45:24.768Z,3.08
2018-03-21T21:47:52.157Z,3.07
2018-03-21T21:50:19.614Z,3.07
2018-03-21T21:52:47.388Z,3.04
2018-03-21T21:55:14.922Z,3.12
2018-03-21T21:57:42.309Z,3.12
2018-03-21T22:00:09.734Z,3.09
2018-03-21T22:02:37.137Z,3.07
2018-03-21T22:05:04.550Z,3.05
2018-03-21T22:07:31.958Z,3.02
2018-03-21T22:09:59.369Z,3.00
2018-03-21T22:12:26.770Z,2.95
2018-03-21T22:14:54.181Z,2.93
2018-03-21T22:17:21.571Z,2.91
2018-03-21T22:19:48.966Z,2.88
2018-03-21T22:22:16.367Z,2.83
2018-03-21T22:24:43.757Z,2.75
2018-03-21T22:27:11.156Z,2.84
2018-03-21T22:29:38.560Z,2.75
2018-03-21T22:32:05.950Z,2.71
2018-03-21T22:34:33.350Z,2.71
2018-03-21T22:37:00.750Z,2.65
2018-03-21T22:39:28.147Z,2.70
2018-03-21T22:41:55.549Z,2.68
2018-03-21T22:44:22.991Z,2.70
2018-03-21T22:46:50.393Z,2.63
2018-03-21T22:49:17.798Z,2.64
2018-03-21T22:51:45.204Z,2.59
2018-03-21T22:54:12.605Z,2.59
2018-03-21T22:56:40.006Z,2.53
2018-03-21T22:59:07.413Z,2.50
2018-03-21T23:01:34.818Z,2.45
2018-03-21T23:04:02.226Z,2.52
2018-03-21T23:06:29.629Z,2.49
2018-03-21T23:08:57.028Z,2.56
2018-03-21T23:11:24.426Z,2.56
2018-03-21T23:13:51.826Z,2.64
2018-03-21T23:16:19.222Z,2.69
2018-03-21T23:18:46.625Z,2.73
2018-03-21T23:21:14.018Z,2.73
2018-03-21T23:23:41.446Z,2.75
2018-03-21T23:26:08.842Z,2.75
2018-03-21T23:28:36.234Z,2.84
2018-03-21T23:31:03.637Z,2.88
2018-03-21T23:33:31.029Z,2.84
2018-03-21T23:35:58.430Z,2.90
2018-03-21T23:38:25.830Z,2.90
2018-03-21T23:40:53.233Z,2.93
2018-03-21T23:43:20.635Z,2.96
2018-03-21T23:45:48.035Z,2.99
2018-03-21T23:48:15.438Z,2.97
2018-03-21T23:50:42.846Z,3.03
2018-03-21T23:53:10.247Z,3.07
2018-03-21T23:55:37.657Z,3.06
2018-03-21T23:58:05.060Z,3.11
